Time;durP1;ratioP1;P1;durP2;ratioP2;P2;SDS_P1;SDS_P2;PMS_P1;PMS_P2;Temp;Humidity;BMP_temperature;BMP_pressure;BME280_temperature;BME280_humidity;BME280_pressure;Samples;Min_cycle;Max_cycle;Signal;HPM_P1;HPM_P2
2022/05/03 00:02:08;;;;;;;3.92;3.22;;;20.00;55.50;;;;;;6372597;22;19998;-83
2022/05/03 00:04:52;;;;;;;9.55;3.00;;;20.10;55.50;;;;;;6347170;22;20005;-86
2022/05/03 00:07:32;;;;;;;3.92;2.90;;;20.10;55.50;;;;;;6377356;22;19986;-85
2022/05/03 00:10:08;;;;;;;4.03;3.40;;;20.10;55.30;;;;;;6351103;22;20009;-86
2022/05/03 00:13:15;;;;;;;4.22;2.83;;;20.10;55.30;;;;;;6377394;22;20006;-85
2022/05/03 00:15:43;;;;;;;4.07;2.90;;;20.10;55.40;;;;;;6374379;22;20011;-87
2022/05/03 00:18:09;;;;;;;5.32;2.95;;;20.10;55.40;;;;;;6347370;22;20077;-85
2022/05/03 00:20:35;;;;;;;3.78;2.83;;;20.10;55.50;;;;;;6372615;22;20002;-84
2022/05/03 00:23:02;;;;;;;4.72;2.90;;;20.00;55.40;;;;;;6372643;22;19998;-85
2022/05/03 00:25:30;;;;;;;4.40;3.28;;;20.00;55.50;;;;;;6372900;22;20009;-85
2022/05/03 00:27:56;;;;;;;3.60;3.00;;;19.90;55.40;;;;;;6373083;22;20025;-85
2022/05/03 00:30:22;;;;;;;3.92;2.85;;;19.90;55.40;;;;;;6345151;22;20093;-86
2022/05/03 00:32:48;;;;;;;4.95;3.03;;;19.80;55.40;;;;;;6371705;22;20003;-84
2022/05/03 00:35:16;;;;;;;4.80;2.88;;;19.90;55.40;;;;;;6372925;22;20006;-86
2022/05/03 02:49:14;;;;;;;2.97;2.58;;;19.30;56.80;;;;;;5434464;22;20322;-83
2022/05/03 02:51:52;;;;;;;3.33;2.50;;;19.30;56.60;;;;;;6370816;22;20026;-84
2022/05/03 02:54:31;;;;;;;3.63;2.50;;;19.20;56.40;;;;;;6343364;22;20021;-83
2022/05/03 02:57:26;;;;;;;2.50;2.25;;;19.30;56.20;;;;;;6342016;22;20058;-83
2022/05/03 03:03:18;;;;;;;2.88;2.42;;;19.20;56.10;;;;;;6370778;22;20012;-86
2022/05/03 03:05:55;;;;;;;2.78;2.40;;;19.20;56.40;;;;;;6355886;22;20002;-85
2022/05/03 03:08:21;;;;;;;3.53;2.65;;;19.20;56.40;;;;;;6372332;22;19998;-88
2022/05/03 03:10:59;;;;;;;3.42;2.38;;;19.10;56.40;;;;;;6372591;22;20026;-87
2022/05/03 03:13:43;;;;;;;4.28;2.67;;;19.10;56.40;;;;;;6372348;22;20071;-87
2022/05/03 03:16:13;;;;;;;2.75;2.10;;;19.10;56.30;;;;;;6344375;22;20051;-85
2022/05/03 03:18:43;;;;;;;3.00;2.42;;;19.10;56.60;;;;;;6342594;22;19998;-85
2022/05/03 03:21:12;;;;;;;3.05;2.30;;;19.10;56.60;;;;;;6341868;22;20082;-84
2022/05/03 03:23:40;;;;;;;2.65;2.38;;;19.10;56.70;;;;;;6370052;22;19999;-83
2022/05/03 03:26:08;;;;;;;4.22;2.50;;;19.00;56.70;;;;;;6370089;22;20003;-82
2022/05/03 03:28:35;;;;;;;3.30;2.92;;;19.00;56.90;;;;;;6373148;22;20008;-86
2022/05/03 03:31:05;;;;;;;3.22;2.85;;;19.00;56.80;;;;;;6373437;22;20059;-86
2022/05/03 03:33:34;;;;;;;3.43;2.87;;;19.00;57.20;;;;;;6372874;22;20419;-86
2022/05/03 03:36:02;;;;;;;2.70;2.40;;;19.00;56.90;;;;;;6372836;22;20005;-86
2022/05/03 03:38:37;;;;;;;2.90;2.35;;;18.90;57.10;;;;;;6372013;22;20001;-82
2022/05/03 03:41:03;;;;;;;3.03;2.40;;;18.80;57.20;;;;;;6343932;22;20332;-83
2022/05/03 03:43:29;;;;;;;3.88;2.60;;;18.80;57.50;;;;;;6343586;22;19998;-82
2022/05/03 03:45:55;;;;;;;3.38;2.90;;;18.70;57.80;;;;;;6344064;22;20006;-84
2022/05/03 03:48:21;;;;;;;3.75;2.90;;;18.60;57.80;;;;;;6345091;22;20029;-84
2022/05/03 03:50:48;;;;;;;4.03;3.13;;;18.60;58.10;;;;;;6372229;22;20428;-84
2022/05/03 03:53:17;;;;;;;4.20;3.00;;;18.60;57.90;;;;;;6372293;22;20301;-83
2022/05/03 03:55:44;;;;;;;4.40;3.13;;;18.60;58.20;;;;;;6371064;22;20026;-83
2022/05/03 03:58:11;;;;;;;3.38;3.08;;;18.60;57.90;;;;;;6371274;22;20408;-84
2022/05/03 04:00:37;;;;;;;3.15;2.85;;;18.60;57.90;;;;;;6372081;22;19995;-85
2022/05/03 04:03:04;;;;;;;2.80;2.60;;;18.50;58.20;;;;;;6372148;22;20128;-82
2022/05/03 04:05:32;;;;;;;6.15;2.80;;;18.50;58.20;;;;;;6371506;22;19994;-83
2022/05/03 04:07:57;;;;;;;4.85;2.70;;;18.40;58.30;;;;;;6371204;22;20003;-83
2022/05/03 04:10:23;;;;;;;2.90;2.28;;;18.40;58.20;;;;;;6371610;22;20045;-82
2022/05/03 04:12:49;;;;;;;3.20;2.70;;;18.40;58.20;;;;;;6343583;22;20009;-81
2022/05/03 04:15:14;;;;;;;3.60;2.90;;;18.40;58.20;;;;;;6371173;22;20005;-82
2022/05/03 04:17:40;;;;;;;3.63;2.75;;;18.40;58.30;;;;;;6371036;22;20007;-88
2022/05/03 04:20:06;;;;;;;3.35;2.65;;;18.40;58.30;;;;;;6371607;22;20408;-82
2022/05/03 04:22:34;;;;;;;2.72;2.40;;;18.40;58.20;;;;;;6341798;22;20016;-83
2022/05/03 04:25:02;;;;;;;5.70;2.63;;;18.40;58.20;;;;;;6370636;22;20078;-82
2022/05/03 04:27:28;;;;;;;3.65;2.97;;;18.40;58.10;;;;;;6342918;22;20034;-82
2022/05/03 04:29:55;;;;;;;4.72;2.67;;;18.40;57.90;;;;;;6370508;22;20427;-81
2022/05/03 04:32:22;;;;;;;4.75;3.17;;;18.40;58.30;;;;;;6370728;22;19994;-82
2022/05/03 04:34:48;;;;;;;3.25;2.70;;;18.40;57.80;;;;;;6370642;22;20036;-84
2022/05/03 04:37:15;;;;;;;3.15;2.53;;;18.40;58.10;;;;;;6370910;22;20002;-85
2022/05/03 04:39:41;;;;;;;4.15;2.65;;;18.40;57.90;;;;;;6371719;22;20003;-83
2022/05/03 04:42:07;;;;;;;5.55;3.10;;;18.40;58.10;;;;;;6370849;22;20005;-82
2022/05/03 04:44:33;;;;;;;5.10;3.03;;;18.40;58.40;;;;;;6370497;22;20001;-83
2022/05/03 04:46:58;;;;;;;3.95;2.88;;;18.40;58.60;;;;;;6369874;22;20003;-83
2022/05/03 04:49:24;;;;;;;4.38;2.97;;;18.40;58.50;;;;;;6370378;22;20010;-85
2022/05/03 04:51:50;;;;;;;2.90;2.60;;;18.40;58.40;;;;;;6370063;22;20022;-81
2022/05/03 04:54:16;;;;;;;3.38;3.00;;;18.40;58.30;;;;;;6369855;22;20002;-82
2022/05/03 04:56:49;;;;;;;5.03;3.00;;;18.40;58.50;;;;;;6370352;22;20378;-81
2022/05/03 04:59:15;;;;;;;4.28;2.95;;;18.40;58.40;;;;;;6370673;22;20429;-81
2022/05/03 05:01:41;;;;;;;5.18;3.40;;;18.40;58.20;;;;;;6342340;22;20002;-86
2022/05/03 05:04:06;;;;;;;3.30;2.92;;;18.50;57.90;;;;;;6372350;22;20048;-86
2022/05/03 05:06:32;;;;;;;4.72;3.20;;;18.50;57.90;;;;;;6344821;22;20040;-85
2022/05/03 05:08:58;;;;;;;4.32;3.25;;;18.50;58.20;;;;;;6346426;22;20054;-85
2022/05/03 05:11:23;;;;;;;3.40;3.10;;;18.50;58.30;;;;;;6373888;22;20305;-85
2022/05/03 05:13:59;;;;;;;3.83;3.40;;;18.50;58.30;;;;;;6371888;22;20294;-80
2022/05/03 05:16:25;;;;;;;5.18;3.05;;;18.50;58.50;;;;;;6342710;22;20336;-80
2022/05/03 05:18:51;;;;;;;4.30;2.90;;;18.50;58.40;;;;;;6370592;22;19994;-80
2022/05/03 05:21:16;;;;;;;3.45;2.80;;;18.50;58.10;;;;;;6370919;22;20051;-80
2022/05/03 05:23:42;;;;;;;8.10;3.70;;;18.50;58.20;;;;;;6368230;22;20420;-80
2022/05/03 05:26:08;;;;;;;4.78;3.38;;;18.50;58.40;;;;;;6370037;22;19998;-79
2022/05/03 05:28:33;;;;;;;3.63;3.20;;;18.50;58.10;;;;;;6370167;22;20010;-80
2022/05/03 05:30:59;;;;;;;3.08;2.78;;;18.40;58.20;;;;;;6370038;22;20007;-80
2022/05/03 05:33:25;;;;;;;4.18;3.45;;;18.40;58.20;;;;;;6370668;22;20643;-80
2022/05/03 05:35:51;;;;;;;3.58;2.60;;;18.30;58.30;;;;;;6369473;22;20366;-80
2022/05/03 05:38:18;;;;;;;5.55;2.83;;;18.40;58.50;;;;;;6369297;22;20013;-78
2022/05/03 05:40:46;;;;;;;3.80;3.08;;;18.40;58.60;;;;;;6369317;22;20069;-79
2022/05/03 05:43:12;;;;;;;4.13;3.58;;;18.40;58.60;;;;;;6369747;22;20115;-79
2022/05/03 05:45:38;;;;;;;7.30;3.22;;;18.40;58.60;;;;;;6370725;22;19994;-83
2022/05/03 05:48:05;;;;;;;3.42;2.90;;;18.40;59.20;;;;;;6370438;22;20070;-80
2022/05/03 05:50:31;;;;;;;5.53;3.40;;;18.40;59.00;;;;;;6370803;22;20018;-80
2022/05/03 05:55:42;;;;;;;3.00;2.65;;;18.50;58.60;;;;;;6372185;22;20032;-91
2022/05/03 05:58:08;;;;;;;4.53;3.05;;;18.60;58.60;;;;;;6368775;22;19995;-79
2022/05/03 06:00:34;;;;;;;3.40;2.55;;;18.60;58.90;;;;;;6366235;22;20005;-80
2022/05/03 06:03:00;;;;;;;4.07;2.95;;;18.60;58.90;;;;;;6366928;22;19998;-79
2022/05/03 06:05:26;;;;;;;4.43;2.80;;;18.70;59.20;;;;;;6368404;22;20471;-77
2022/05/03 06:07:53;;;;;;;2.97;2.63;;;18.70;59.30;;;;;;6367269;22;19998;-77
2022/05/03 06:10:23;;;;;;;3.90;2.60;;;18.80;59.10;;;;;;6369318;22;19995;-78
2022/05/03 06:12:48;;;;;;;3.13;2.22;;;18.80;59.20;;;;;;6369292;22;20086;-78
2022/05/03 06:15:14;;;;;;;3.15;2.20;;;18.80;59.10;;;;;;6367975;22;20048;-77
2022/05/03 06:17:40;;;;;;;3.05;2.17;;;18.90;59.10;;;;;;6341893;22;20012;-78
2022/05/03 06:20:10;;;;;;;5.07;3.03;;;18.90;59.40;;;;;;6370072;22;20002;-78
2022/05/03 06:22:36;;;;;;;2.60;2.10;;;18.90;58.90;;;;;;6341402;22;20006;-78
2022/05/03 06:25:03;;;;;;;4.95;2.20;;;19.00;59.10;;;;;;6369436;22;20333;-78
2022/05/03 06:27:29;;;;;;;3.50;2.10;;;19.00;58.60;;;;;;6369560;22;20002;-77
2022/05/03 06:29:54;;;;;;;3.75;2.35;;;19.10;58.60;;;;;;6369318;22;20056;-78
2022/05/03 06:32:20;;;;;;;3.17;2.03;;;19.10;59.10;;;;;;6364097;22;20366;-80
2022/05/03 06:34:46;;;;;;;2.35;1.92;;;19.20;58.40;;;;;;6367065;22;19998;-78
2022/05/03 06:37:19;;;;;;;5.28;1.95;;;19.20;58.00;;;;;;6368157;22;20073;-78
2022/05/03 06:39:45;;;;;;;2.97;2.22;;;19.20;57.90;;;;;;6367030;22;20005;-78
2022/05/03 06:42:10;;;;;;;2.53;2.15;;;19.30;57.60;;;;;;6368385;22;20002;-78
2022/05/03 06:44:37;;;;;;;4.20;2.10;;;19.30;56.70;;;;;;6368491;22;20019;-78
2022/05/03 06:47:07;;;;;;;3.45;1.88;;;19.40;56.80;;;;;;6368780;22;20009;-78
2022/05/03 06:49:40;;;;;;;5.47;2.05;;;19.40;56.20;;;;;;6369037;22;20018;-78
2022/05/03 06:52:06;;;;;;;4.68;2.00;;;19.50;56.10;;;;;;6368378;22;20003;-78
2022/05/03 06:54:32;;;;;;;2.47;1.90;;;19.50;56.20;;;;;;6369808;22;20037;-77
2022/05/03 06:56:58;;;;;;;3.55;1.75;;;19.50;56.20;;;;;;6368992;22;20077;-78
2022/05/03 06:59:36;;;;;;;2.28;1.77;;;19.60;56.50;;;;;;6368509;22;19994;-78
2022/05/03 07:02:03;;;;;;;;;;;19.60;56.30;;;;;;6340952;22;20051;-78
2022/05/03 07:04:29;;;;;;;2.90;1.45;;;19.70;56.90;;;;;;6369074;22;20364;-79
2022/05/03 07:06:55;;;;;;;3.80;1.67;;;19.70;56.20;;;;;;6368940;22;20401;-79
2022/05/03 07:09:20;;;;;;;2.33;1.60;;;19.80;56.30;;;;;;6366835;22;20051;-79
2022/05/03 07:11:46;;;;;;;2.28;1.70;;;19.80;56.10;;;;;;6369889;22;20304;-80
2022/05/03 07:14:12;;;;;;;2.85;2.00;;;19.90;56.20;;;;;;6369019;22;20383;-79
2022/05/03 07:16:37;;;;;;;2.95;2.00;;;19.90;56.40;;;;;;6370439;22;20025;-80
2022/05/03 07:24:31;;;;;;;2.25;1.90;;;20.10;55.50;;;;;;6369899;22;20328;-80
2022/05/03 07:26:57;;;;;;;2.63;1.67;;;20.20;55.10;;;;;;6369725;22;19998;-80
2022/05/03 07:29:23;;;;;;;1.85;1.58;;;20.30;54.90;;;;;;6369682;22;20006;-80
2022/05/03 07:31:48;;;;;;;2.55;1.60;;;20.30;54.70;;;;;;6369061;22;20002;-80
2022/05/03 07:34:14;;;;;;;2.67;1.75;;;20.40;54.70;;;;;;6370243;22;20328;-83
2022/05/03 07:36:42;;;;;;;2.63;1.77;;;20.50;54.70;;;;;;6343128;22;20080;-83
2022/05/03 07:39:08;;;;;;;14.55;11.68;;;20.60;54.20;;;;;;6370565;22;20006;-82
2022/05/03 07:41:34;;;;;;;5.85;4.75;;;20.60;53.70;;;;;;6367862;22;20451;-79
2022/05/03 07:44:00;;;;;;;2.63;2.35;;;20.70;53.50;;;;;;6366670;22;19995;-79
2022/05/03 07:46:26;;;;;;;2.67;1.73;;;20.80;53.40;;;;;;6367957;22;20559;-87
2022/05/03 07:48:51;;;;;;;1.92;1.42;;;20.80;53.30;;;;;;6368961;22;20007;-80
2022/05/03 07:51:19;;;;;;;2.58;1.70;;;20.90;53.50;;;;;;6368764;22;20344;-88
2022/05/03 07:53:45;;;;;;;2.47;1.60;;;20.90;53.10;;;;;;6368129;22;20003;-79
2022/05/03 07:56:19;;;;;;;3.00;1.70;;;21.00;53.00;;;;;;6359703;22;20095;-96
2022/05/03 08:04:10;;;;;;;2.95;1.67;;;21.20;52.20;;;;;;6304789;22;20098;-79
2022/05/03 08:06:36;;;;;;;1.80;1.45;;;21.30;53.00;;;;;;6305431;22;20031;-80
2022/05/03 08:09:03;;;;;;;1.73;1.50;;;21.30;52.60;;;;;;6305615;22;20018;-80
2022/05/03 08:11:29;;;;;;;2.40;1.63;;;21.40;52.80;;;;;;6303965;22;19996;-80
2022/05/03 08:13:54;;;;;;;2.20;1.60;;;21.40;52.70;;;;;;6306781;22;19995;-80
2022/05/03 08:16:21;;;;;;;2.38;1.70;;;21.50;52.50;;;;;;6306334;22;20004;-80
2022/05/03 08:18:48;;;;;;;2.83;1.70;;;21.60;52.60;;;;;;6280444;22;20333;-79
2022/05/03 08:21:14;;;;;;;1.80;1.67;;;21.60;52.90;;;;;;6306282;22;19999;-79
2022/05/03 08:23:40;;;;;;;2.15;1.60;;;21.70;52.90;;;;;;6280015;22;20333;-79
2022/05/03 08:26:05;;;;;;;4.22;1.80;;;21.80;51.40;;;;;;6306582;22;19999;-79
2022/05/03 08:28:32;;;;;;;2.67;1.67;;;21.80;51.80;;;;;;6305746;22;20061;-79
2022/05/03 08:30:58;;;;;;;1.90;1.35;;;21.90;52.20;;;;;;6267558;22;20368;-80
2022/05/03 08:33:24;;;;;;;1.67;1.33;;;22.00;52.50;;;;;;6278966;22;20003;-81
2022/05/03 08:35:49;;;;;;;3.28;1.42;;;22.00;52.00;;;;;;6306137;22;20010;-81
2022/05/03 08:43:48;;;;;;;2.45;1.42;;;22.30;51.60;;;;;;6307454;22;20094;-81
2022/05/03 08:46:15;;;;;;;3.53;1.58;;;22.40;51.30;;;;;;6280497;22;20038;-80
2022/05/03 08:48:42;;;;;;;1.77;1.35;;;22.50;49.90;;;;;;6307873;22;20003;-82
2022/05/03 08:51:12;;;;;;;3.50;1.60;;;22.50;50.20;;;;;;6307595;22;20010;-80
2022/05/03 08:53:40;;;;;;;3.17;1.85;;;22.60;50.50;;;;;;6307373;22;20018;-81
2022/05/03 08:56:06;;;;;;;1.33;1.23;;;22.70;49.70;;;;;;6304866;22;20082;-87
2022/05/03 08:58:32;;;;;;;2.22;1.58;;;22.70;50.20;;;;;;6306610;22;20053;-80
2022/05/03 09:00:58;;;;;;;1.75;1.60;;;22.80;50.40;;;;;;6308281;22;20003;-80
2022/05/03 09:03:24;;;;;;;1.75;1.38;;;22.80;50.30;;;;;;6327098;22;20010;-80
2022/05/03 09:05:52;;;;;;;3.38;1.55;;;22.80;50.30;;;;;;6338355;22;20006;-79
2022/05/03 09:08:23;;;;;;;2.00;1.50;;;22.90;50.90;;;;;;6310545;22;20055;-79
2022/05/03 09:10:49;;;;;;;1.90;1.60;;;23.00;50.70;;;;;;6311229;22;20483;-79
2022/05/03 09:13:22;;;;;;;3.28;1.52;;;23.10;50.60;;;;;;6338657;22;20324;-79
2022/05/03 09:15:55;;;;;;;1.95;1.25;;;23.20;49.00;;;;;;6337756;22;20003;-80
2022/05/03 09:18:28;;;;;;;1.85;1.27;;;23.30;49.30;;;;;;6338117;22;20054;-79
2022/05/03 09:23:48;;;;;;;3.33;1.80;;;23.40;49.90;;;;;;6338424;22;20086;-78
2022/05/03 09:26:14;;;;;;;2.22;1.58;;;23.50;50.30;;;;;;6338379;22;20476;-78
2022/05/03 09:28:45;;;;;;;1.48;1.38;;;23.60;49.40;;;;;;6338398;22;20078;-78
2022/05/03 09:31:11;;;;;;;2.15;1.48;;;23.70;48.60;;;;;;6309985;22;20325;-79
2022/05/03 09:33:38;;;;;;;3.08;1.60;;;23.80;48.10;;;;;;6339218;22;20003;-78
2022/05/03 09:36:10;;;;;;;1.80;1.58;;;23.80;48.40;;;;;;6338955;22;20003;-78
2022/05/03 09:38:50;;;;;;;2.00;1.60;;;23.90;48.20;;;;;;6338447;22;20006;-78
2022/05/03 09:41:17;;;;;;;4.03;1.95;;;24.10;48.70;;;;;;6338611;22;19999;-78
2022/05/03 09:44:01;;;;;;;2.17;1.55;;;24.10;48.10;;;;;;6338575;22;19999;-78
2022/05/03 09:46:28;;;;;;;2.75;1.75;;;24.20;46.30;;;;;;6339092;22;20002;-79
2022/05/03 09:48:57;;;;;;;4.35;1.65;;;24.30;47.10;;;;;;6338472;22;20497;-79
2022/05/03 09:51:24;;;;;;;1.83;1.60;;;24.40;47.10;;;;;;6338685;22;20022;-78
2022/05/03 09:53:59;;;;;;;2.35;1.60;;;24.50;46.90;;;;;;6338277;22;20010;-78
2022/05/03 09:56:27;;;;;;;4.45;1.58;;;24.60;46.20;;;;;;6338471;22;20006;-79
2022/05/03 09:59:00;;;;;;;3.20;1.75;;;24.70;46.40;;;;;;6338826;22;20335;-78
2022/05/03 10:01:26;;;;;;;2.63;1.60;;;24.80;46.20;;;;;;6338973;22;20027;-78
2022/05/03 10:03:52;;;;;;;1.73;1.58;;;24.90;46.10;;;;;;6338432;22;20405;-79
2022/05/03 10:06:20;;;;;;;2.97;1.70;;;25.00;46.10;;;;;;6338791;22;20006;-78
2022/05/03 10:08:51;;;;;;;2.40;1.23;;;25.20;46.00;;;;;;6337972;22;20006;-79
2022/05/03 10:11:17;;;;;;;2.10;1.50;;;25.30;45.90;;;;;;6338473;22;20027;-78
2022/05/03 10:13:43;;;;;;;2.08;1.30;;;25.40;45.60;;;;;;6337662;22;20073;-78
2022/05/03 10:21:47;;;;;;;;;;;25.70;45.00;;;;;;6338672;22;20072;-78
2022/05/03 10:24:14;;;;;;;2.47;1.95;;;25.90;44.80;;;;;;6338584;22;19899;-79
2022/05/03 10:27:05;;;;;;;3.95;1.70;;;25.90;43.10;;;;;;6337991;22;20025;-79
2022/05/03 10:29:36;;;;;;;3.67;1.55;;;26.00;43.70;;;;;;6338635;22;20002;-79
2022/05/03 10:32:06;;;;;;;3.50;1.67;;;26.00;43.40;;;;;;6338563;22;19999;-78
2022/05/03 10:34:59;;;;;;;2.95;1.52;;;26.10;43.30;;;;;;6338637;22;20011;-79
2022/05/03 10:37:34;;;;;;;1.88;1.30;;;26.20;42.80;;;;;;6336975;22;20034;-79
2022/05/03 10:40:06;;;;;;;1.90;1.42;;;26.40;42.60;;;;;;6338239;22;20002;-79
2022/05/03 10:42:32;;;;;;;2.08;1.40;;;26.40;42.30;;;;;;6338174;22;20410;-80
2022/05/03 10:45:03;;;;;;;2.42;1.48;;;26.50;42.00;;;;;;6338798;22;20069;-80
2022/05/03 10:47:52;;;;;;;2.72;1.65;;;26.60;41.60;;;;;;6337951;22;20006;-80
2022/05/03 10:50:34;;;;;;;2.35;1.58;;;26.70;41.20;;;;;;6337633;22;20017;-80
2022/05/03 10:53:00;;;;;;;1.95;1.67;;;26.80;40.30;;;;;;6310985;22;20003;-80
2022/05/03 10:55:35;;;;;;;1.98;1.30;;;26.80;40.30;;;;;;6337595;22;20033;-80
2022/05/03 10:58:25;;;;;;;1.83;1.30;;;26.90;40.00;;;;;;6310393;22;20007;-78
2022/05/03 11:01:20;;;;;;;4.65;1.80;;;26.90;38.70;;;;;;6337783;22;20009;-79
2022/05/03 11:03:48;;;;;;;2.33;1.50;;;27.00;38.30;;;;;;6337772;22;20025;-79
2022/05/03 11:08:58;;;;;;;2.97;1.60;;;27.10;37.20;;;;;;6338240;22;20003;-79
2022/05/03 11:11:37;;;;;;;1.63;1.45;;;27.10;37.90;;;;;;6337893;22;20086;-79
2022/05/03 11:14:04;;;;;;;2.58;1.38;;;27.20;38.10;;;;;;6336968;22;20584;-79
2022/05/03 11:16:34;;;;;;;1.63;1.30;;;27.30;37.80;;;;;;6337714;22;20003;-80
2022/05/03 11:19:09;;;;;;;2.55;1.60;;;27.40;38.30;;;;;;6338078;22;19991;-79
2022/05/03 11:21:35;;;;;;;4.13;1.77;;;27.60;38.10;;;;;;6337922;22;20002;-80
2022/05/03 11:24:01;;;;;;;4.05;1.77;;;27.70;37.60;;;;;;6310270;22;20358;-80
2022/05/03 11:26:26;;;;;;;2.05;1.80;;;27.90;38.10;;;;;;6310385;22;20083;-80
2022/05/03 11:28:56;;;;;;;2.35;1.30;;;28.10;36.80;;;;;;6337744;22;20002;-80
2022/05/03 11:31:23;;;;;;;2.17;1.43;;;28.50;38.00;;;;;;6309862;22;20010;-80
2022/05/03 11:33:53;;;;;;;1.90;1.63;;;29.10;38.40;;;;;;6337137;22;20086;-78
2022/05/03 11:36:19;;;;;;;;;;;29.70;37.50;;;;;;6308618;22;20007;-79
2022/05/03 11:38:48;;;;;;;3.38;1.50;;;30.20;35.30;;;;;;6336848;22;19899;-79
2022/05/03 11:41:14;;;;;;;2.80;1.70;;;30.80;35.60;;;;;;6337328;22;20023;-78
2022/05/03 11:43:39;;;;;;;1.98;1.30;;;31.20;33.70;;;;;;6336685;22;20332;-79
2022/05/03 11:46:05;;;;;;;1.60;1.50;;;31.50;33.20;;;;;;6336763;22;19999;-80
2022/05/03 11:48:32;;;;;;;1.88;1.65;;;31.90;32.80;;;;;;6311007;22;20056;-82
2022/05/03 11:56:26;;;;;;;3.60;1.70;;;32.70;31.40;;;;;;6338202;22;20017;-82
2022/05/03 11:58:54;;;;;;;1.75;1.63;;;32.90;30.00;;;;;;6311362;22;20003;-80
2022/05/03 12:01:20;;;;;;;2.15;1.80;;;32.90;30.50;;;;;;6338867;22;20377;-80
2022/05/03 12:03:49;;;;;;;2.08;1.88;;;33.10;30.50;;;;;;6311378;22;20057;-81
2022/05/03 12:06:16;;;;;;;2.88;2.13;;;33.20;30.00;;;;;;6338752;22;20002;-81
2022/05/03 12:08:45;;;;;;;2.05;1.70;;;33.20;29.50;;;;;;6338686;22;20002;-81
2022/05/03 12:11:21;;;;;;;3.97;2.17;;;33.30;28.60;;;;;;6338747;22;20010;-80
2022/05/03 12:13:47;;;;;;;2.83;1.90;;;33.30;28.10;;;;;;6338806;22;20006;-81
2022/05/03 12:16:16;;;;;;;3.33;2.10;;;33.40;28.60;;;;;;6338960;22;20003;-80
2022/05/03 12:18:46;;;;;;;2.97;1.95;;;33.40;29.20;;;;;;6338871;22;19998;-80
2022/05/03 12:21:24;;;;;;;2.88;1.75;;;33.50;28.80;;;;;;6338695;22;20044;-81
2022/05/03 12:23:52;;;;;;;5.53;1.90;;;33.90;28.50;;;;;;6338975;22;20068;-80
2022/05/03 12:26:27;;;;;;;3.10;1.52;;;34.20;27.40;;;;;;6338906;22;20062;-81
2022/05/03 12:29:00;;;;;;;3.25;1.67;;;34.20;27.00;;;;;;6338338;22;19999;-80
2022/05/03 12:31:38;;;;;;;2.33;1.70;;;34.40;26.50;;;;;;6310466;22;20121;-81
2022/05/03 12:34:11;;;;;;;2.42;1.50;;;34.50;26.80;;;;;;6311033;22;20003;-82
2022/05/03 12:36:44;;;;;;;1.75;1.63;;;34.80;26.40;;;;;;6310970;22;20094;-82
2022/05/03 12:39:17;;;;;;;3.28;1.80;;;34.90;24.80;;;;;;6338426;22;20006;-82
2022/05/03 12:41:45;;;;;;;2.45;1.80;;;34.80;26.40;;;;;;6338485;22;20066;-80
2022/05/03 12:44:15;;;;;;;3.00;2.00;;;35.10;26.10;;;;;;6337543;22;20274;-80
2022/05/03 12:46:42;;;;;;;1.98;1.60;;;35.10;25.60;;;;;;6337987;22;20035;-80
2022/05/03 12:49:13;;;;;;;4.20;2.03;;;35.30;25.70;;;;;;6338217;22;20014;-80
2022/05/03 12:51:42;;;;;;;5.25;2.33;;;35.10;25.40;;;;;;6310314;22;20059;-80
2022/05/03 12:54:09;;;;;;;3.42;1.98;;;35.30;25.60;;;;;;6337262;22;20022;-80
2022/05/03 12:59:21;;;;;;;3.92;1.40;;;35.80;25.50;;;;;;6336992;22;20018;-82
2022/05/03 13:01:48;;;;;;;2.80;1.85;;;36.00;24.20;;;;;;6337473;22;20003;-83
2022/05/03 13:04:14;;;;;;;2.17;1.80;;;36.00;24.50;;;;;;6310692;22;20445;-82
2022/05/03 13:06:41;;;;;;;1.63;1.50;;;36.10;24.70;;;;;;6309938;22;20425;-78
2022/05/03 13:09:08;;;;;;;1.50;1.40;;;36.10;24.60;;;;;;6338074;22;20051;-89
2022/05/03 13:11:38;;;;;;;2.63;1.52;;;36.20;24.30;;;;;;6340754;22;20009;-88
2022/05/03 13:14:08;;;;;;;1.23;1.13;;;36.20;23.90;;;;;;6340307;22;19998;-88
2022/05/03 13:16:33;;;;;;;1.55;1.38;;;36.20;23.50;;;;;;6340263;22;20016;-88
2022/05/03 13:18:59;;;;;;;3.65;1.27;;;36.20;23.30;;;;;;6340522;22;20379;-89
2022/05/03 13:21:25;;;;;;;5.63;2.88;;;36.00;23.10;;;;;;6341562;22;19995;-88
2022/05/03 13:23:51;;;;;;;3.47;2.63;;;35.90;23.70;;;;;;6341078;22;19998;-88
2022/05/03 13:26:17;;;;;;;4.28;2.70;;;35.70;24.00;;;;;;6312476;22;20018;-86
2022/05/03 13:28:42;;;;;;;3.70;2.78;;;35.70;24.20;;;;;;6341068;22;20010;-86
2022/05/03 13:31:08;;;;;;;3.15;2.15;;;35.60;23.70;;;;;;6339848;22;20013;-86
2022/05/03 13:33:34;;;;;;;4.95;1.90;;;35.70;24.20;;;;;;6339813;22;20002;-85
2022/05/03 13:41:28;;;;;;;2.45;1.40;;;35.60;23.30;;;;;;6339972;22;20037;-85
2022/05/03 13:43:54;;;;;;;2.90;1.75;;;35.60;23.40;;;;;;6339364;22;20007;-86
2022/05/03 13:46:19;;;;;;;3.92;2.10;;;35.70;23.60;;;;;;6340038;22;20079;-84
2022/05/03 13:48:46;;;;;;;1.75;1.52;;;35.70;23.60;;;;;;6310783;22;20007;-78
2022/05/03 13:51:11;;;;;;;2.20;1.63;;;35.60;23.40;;;;;;6337436;22;20005;-79
2022/05/03 13:53:37;;;;;;;2.35;1.40;;;35.40;23.60;;;;;;6337767;22;20027;-77
2022/05/03 13:56:04;;;;;;;2.47;1.77;;;35.30;23.60;;;;;;6337949;22;20409;-78
2022/05/03 13:58:31;;;;;;;4.13;1.80;;;35.20;23.20;;;;;;6338607;22;20002;-78
2022/05/03 14:00:57;;;;;;;1.92;1.52;;;35.10;23.40;;;;;;6338435;22;20006;-78
2022/05/03 14:03:22;;;;;;;125.10;112.75;;;35.00;23.60;;;;;;6337624;22;20010;-79
2022/05/03 14:05:48;;;;;;;23.30;20.95;;;34.80;23.70;;;;;;6338184;22;20088;-78
2022/05/03 14:08:14;;;;;;;6.13;4.47;;;34.60;23.60;;;;;;6310224;22;20003;-78
2022/05/03 14:10:41;;;;;;;2.38;1.55;;;34.30;23.70;;;;;;6308446;22;20006;-79
2022/05/03 14:13:07;;;;;;;3.78;1.75;;;33.90;23.90;;;;;;6336866;22;20006;-79
2022/05/03 14:15:34;;;;;;;3.60;1.50;;;33.40;24.10;;;;;;6336846;22;20025;-79
2022/05/03 14:18:00;;;;;;;3.20;1.55;;;32.90;24.20;;;;;;6337434;22;20011;-79
2022/05/03 14:20:27;;;;;;;1.70;1.30;;;32.40;24.50;;;;;;6336159;22;20026;-78
2022/05/03 14:22:53;;;;;;;1.70;1.55;;;31.90;24.70;;;;;;6308780;22;20545;-78
2022/05/03 14:25:22;;;;;;;4.63;1.60;;;31.50;25.00;;;;;;6337435;22;20006;-78
2022/05/03 14:27:48;;;;;;;;;;;31.10;24.70;;;;;;6336820;22;20456;-78
2022/05/03 14:30:14;;;;;;;5.22;1.65;;;30.70;25.00;;;;;;6337262;22;19909;-78
2022/05/03 14:32:40;;;;;;;4.18;1.52;;;30.40;25.40;;;;;;6336969;22;20026;-78
2022/05/03 14:35:06;;;;;;;3.80;1.45;;;30.10;26.10;;;;;;6334275;22;20493;-83
2022/05/03 14:37:33;;;;;;;2.13;1.60;;;29.80;26.00;;;;;;6306708;22;20003;-79
2022/05/03 14:39:59;;;;;;;2.60;1.60;;;29.60;25.70;;;;;;6334201;22;20364;-79
2022/05/03 14:42:25;;;;;;;2.88;1.50;;;29.40;25.90;;;;;;6309158;22;20001;-83
2022/05/03 14:44:51;;;;;;;3.50;1.75;;;29.20;26.10;;;;;;6337526;22;19999;-83
2022/05/03 14:47:17;;;;;;;2.75;1.33;;;29.00;26.20;;;;;;6309425;22;20475;-82
2022/05/03 14:49:44;;;;;;;4.57;1.45;;;28.80;25.90;;;;;;6337089;22;20476;-83
2022/05/03 14:52:13;;;;;;;3.25;1.38;;;28.60;26.00;;;;;;6337386;22;20075;-83
2022/05/03 14:54:39;;;;;;;4.40;1.35;;;28.50;26.50;;;;;;6336601;22;20486;-83
2022/05/03 15:05:23;;;;;;;2.63;1.52;;;28.10;27.20;;;;;;6336980;22;20681;-83
2022/05/03 15:07:50;;;;;;;2.53;1.35;;;28.00;27.40;;;;;;6309343;22;20432;-83
2022/05/03 15:10:16;;;;;;;5.05;1.50;;;27.90;27.40;;;;;;6336562;22;20346;-83
2022/05/03 15:12:43;;;;;;;4.72;1.52;;;27.80;27.60;;;;;;6337079;22;20006;-83
2022/05/03 15:15:12;;;;;;;2.38;1.42;;;27.70;27.80;;;;;;6309752;22;20010;-83
2022/05/03 15:17:38;;;;;;;4.05;1.70;;;27.70;28.00;;;;;;6336274;22;20101;-79
2022/05/03 15:20:05;;;;;;;2.28;1.50;;;27.60;27.90;;;;;;6308131;22;20082;-80
2022/05/03 15:25:15;;;;;;;2.97;1.33;;;27.50;28.00;;;;;;6338652;22;20013;-79
2022/05/03 15:27:40;;;;;;;4.88;1.50;;;27.40;27.90;;;;;;6337756;22;20085;-79
2022/05/03 15:30:06;;;;;;;1.67;1.20;;;27.30;28.00;;;;;;6338124;22;20003;-79
2022/05/03 15:32:35;;;;;;;3.17;1.30;;;27.30;28.00;;;;;;6338564;22;20309;-80
2022/05/03 15:35:03;;;;;;;2.08;1.33;;;27.30;28.20;;;;;;6337818;22;20007;-80
2022/05/03 15:37:31;;;;;;;1.75;1.20;;;27.30;28.20;;;;;;6310397;22;20014;-79
2022/05/03 15:39:57;;;;;;;1.77;1.50;;;27.30;28.00;;;;;;6310850;22;20090;-79
2022/05/03 15:42:27;;;;;;;4.00;1.67;;;27.20;28.00;;;;;;6338716;22;19999;-82
2022/05/03 15:44:54;;;;;;;4.53;1.60;;;27.20;28.20;;;;;;6311580;22;20014;-82
2022/05/03 15:47:25;;;;;;;2.17;1.20;;;27.10;28.10;;;;;;6338763;22;20006;-82
2022/05/03 15:49:52;;;;;;;3.80;1.58;;;27.00;28.20;;;;;;6338839;22;20075;-82
2022/05/03 15:52:19;;;;;;;2.30;1.23;;;27.00;28.40;;;;;;6338675;22;20002;-82
2022/05/03 15:54:45;;;;;;;1.83;1.33;;;27.00;28.70;;;;;;6311197;22;20003;-82
2022/05/03 15:57:11;;;;;;;3.63;1.40;;;26.90;28.60;;;;;;6338474;22;20007;-82
2022/05/03 15:59:37;;;;;;;2.75;1.42;;;26.90;28.40;;;;;;6338719;22;20003;-82
2022/05/03 16:02:04;;;;;;;4.95;1.70;;;26.80;28.20;;;;;;6337298;22;20003;-81
2022/05/03 16:04:30;;;;;;;3.95;1.60;;;26.80;28.40;;;;;;6311881;22;20324;-83